sensor_id;sensor_type;location;lat;lon;timestamp;pressure;altitude;pressure_sealevel;temperature;humidity
76424;BME280;65257;52.104;4.268;2023-06-04T00:01:13;56264.09;;;-142.31;100.00
76424;BME280;65257;52.104;4.268;2023-06-04T00:03:38;56264.09;;;-142.31;100.00
76424;BME280;65257;52.104;4.268;2023-06-04T00:06:04;56264.09;;;-142.31;100.00
76424;BME280;65257;52.104;4.268;2023-06-04T00:08:32;56264.09;;;-142.31;100.00
76424;BME280;65257;52.104;4.268;2023-06-04T00:10:57;56264.09;;;-142.31;100.00
76424;BME280;65257;52.104;4.268;2023-06-04T00:13:23;56264.09;;;-142.31;100.00
76424;BME280;65257;52.104;4.268;2023-06-04T00:15:51;56264.09;;;-142.31;100.00
76424;BME280;65257;52.104;4.268;2023-06-04T00:18:16;56264.09;;;-142.31;100.00
76424;BME280;65257;52.104;4.268;2023-06-04T00:20:42;56264.09;;;-142.31;100.00
76424;BME280;65257;52.104;4.268;2023-06-04T00:23:10;56264.09;;;-142.31;100.00
76424;BME280;65257;52.104;4.268;2023-06-04T00:25:35;56264.09;;;-142.31;100.00
76424;BME280;65257;52.104;4.268;2023-06-04T00:28:01;56264.09;;;-142.31;100.00
76424;BME280;65257;52.104;4.268;2023-06-04T00:30:26;56264.09;;;-142.31;100.00
76424;BME280;65257;52.104;4.268;2023-06-04T00:32:52;56264.09;;;-142.31;100.00
76424;BME280;65257;52.104;4.268;2023-06-04T00:35:17;56264.09;;;-142.31;100.00
76424;BME280;65257;52.104;4.268;2023-06-04T00:37:43;56264.09;;;-142.31;100.00
76424;BME280;65257;52.104;4.268;2023-06-04T00:40:12;56264.09;;;-142.31;100.00
76424;BME280;65257;52.104;4.268;2023-06-04T00:42:38;56264.09;;;-142.31;100.00
76424;BME280;65257;52.104;4.268;2023-06-04T00:45:06;56264.09;;;-142.31;100.00
76424;BME280;65257;52.104;4.268;2023-06-04T00:47:35;56264.09;;;-142.31;100.00
76424;BME280;65257;52.104;4.268;2023-06-04T00:50:01;56264.09;;;-142.31;100.00
76424;BME280;65257;52.104;4.268;2023-06-04T00:52:26;56264.09;;;-142.31;100.00
76424;BME280;65257;52.104;4.268;2023-06-04T00:54:52;56264.09;;;-142.31;100.00
76424;BME280;65257;52.104;4.268;2023-06-04T00:57:22;56264.09;;;-142.31;100.00
76424;BME280;65257;52.104;4.268;2023-06-04T00:59:48;56264.09;;;-142.31;100.00
76424;BME280;65257;52.104;4.268;2023-06-04T01:02:18;56264.09;;;-142.31;100.00
76424;BME280;65257;52.104;4.268;2023-06-04T01:05:36;56264.09;;;-142.31;100.00
76424;BME280;65257;52.104;4.268;2023-06-04T01:07:50;56264.09;;;-142.31;100.00
76424;BME280;65257;52.104;4.268;2023-06-04T01:10:17;56264.09;;;-142.31;100.00
76424;BME280;65257;52.104;4.268;2023-06-04T01:12:43;56264.09;;;-142.31;100.00
76424;BME280;65257;52.104;4.268;2023-06-04T01:15:12;56264.09;;;-142.31;100.00
76424;BME280;65257;52.104;4.268;2023-06-04T01:17:59;56264.09;;;-142.31;100.00
76424;BME280;65257;52.104;4.268;2023-06-04T01:20:39;56264.09;;;-142.31;100.00
76424;BME280;65257;52.104;4.268;2023-06-04T01:26:32;56264.09;;;-142.31;100.00
76424;BME280;65257;52.104;4.268;2023-06-04T01:28:58;56264.09;;;-142.31;100.00
76424;BME280;65257;52.104;4.268;2023-06-04T01:31:34;56264.09;;;-142.31;100.00
76424;BME280;65257;52.104;4.268;2023-06-04T01:34:03;56264.09;;;-142.31;100.00
76424;BME280;65257;52.104;4.268;2023-06-04T01:36:32;56264.09;;;-142.31;100.00
76424;BME280;65257;52.104;4.268;2023-06-04T01:38:58;56264.09;;;-142.31;100.00
76424;BME280;65257;52.104;4.268;2023-06-04T01:41:25;56264.09;;;-142.31;100.00
76424;BME280;65257;52.104;4.268;2023-06-04T01:43:54;56264.09;;;-142.31;100.00
76424;BME280;65257;52.104;4.268;2023-06-04T01:46:20;56264.09;;;-142.31;100.00
76424;BME280;65257;52.104;4.268;2023-06-04T01:48:45;56264.09;;;-142.31;100.00
76424;BME280;65257;52.104;4.268;2023-06-04T01:51:14;56264.09;;;-142.31;100.00
76424;BME280;65257;52.104;4.268;2023-06-04T01:53:46;56264.09;;;-142.31;100.00
76424;BME280;65257;52.104;4.268;2023-06-04T01:56:11;56264.09;;;-142.31;100.00
76424;BME280;65257;52.104;4.268;2023-06-04T01:58:38;56264.09;;;-142.31;100.00
76424;BME280;65257;52.104;4.268;2023-06-04T02:01:03;56264.09;;;-142.31;100.00
76424;BME280;65257;52.104;4.268;2023-06-04T02:03:34;56264.09;;;-142.31;100.00
76424;BME280;65257;52.104;4.268;2023-06-04T02:06:04;56264.09;;;-142.31;100.00
76424;BME280;65257;52.104;4.268;2023-06-04T02:08:35;56264.09;;;-142.31;100.00
76424;BME280;65257;52.104;4.268;2023-06-04T02:11:01;56264.09;;;-142.31;100.00
76424;BME280;65257;52.104;4.268;2023-06-04T02:13:26;56264.09;;;-142.31;100.00
76424;BME280;65257;52.104;4.268;2023-06-04T02:15:52;56264.09;;;-142.31;100.00
76424;BME280;65257;52.104;4.268;2023-06-04T02:18:20;56264.09;;;-142.31;100.00
76424;BME280;65257;52.104;4.268;2023-06-04T02:20:54;56264.09;;;-142.31;100.00
76424;BME280;65257;52.104;4.268;2023-06-04T02:23:22;56264.09;;;-142.31;100.00
76424;BME280;65257;52.104;4.268;2023-06-04T02:25:48;56264.09;;;-142.31;100.00
76424;BME280;65257;52.104;4.268;2023-06-04T02:28:16;56264.09;;;-142.31;100.00
76424;BME280;65257;52.104;4.268;2023-06-04T02:30:42;56264.09;;;-142.31;100.00
76424;BME280;65257;52.104;4.268;2023-06-04T02:33:07;56264.09;;;-142.31;100.00
76424;BME280;65257;52.104;4.268;2023-06-04T02:35:35;56264.09;;;-142.31;100.00
76424;BME280;65257;52.104;4.268;2023-06-04T02:38:00;56264.09;;;-142.31;100.00
76424;BME280;65257;52.104;4.268;2023-06-04T02:40:26;56264.09;;;-142.31;100.00
76424;BME280;65257;52.104;4.268;2023-06-04T02:42:55;56264.09;;;-142.31;100.00
76424;BME280;65257;52.104;4.268;2023-06-04T02:45:22;56264.09;;;-142.31;100.00
76424;BME280;65257;52.104;4.268;2023-06-04T02:47:48;56264.09;;;-142.31;100.00
76424;BME280;65257;52.104;4.268;2023-06-04T02:50:14;56264.09;;;-142.31;100.00
76424;BME280;65257;52.104;4.268;2023-06-04T02:52:41;56264.09;;;-142.31;100.00
76424;BME280;65257;52.104;4.268;2023-06-04T02:55:08;56264.09;;;-142.31;100.00
76424;BME280;65257;52.104;4.268;2023-06-04T02:57:41;56264.09;;;-142.31;100.00
76424;BME280;65257;52.104;4.268;2023-06-04T03:00:08;56264.09;;;-142.31;100.00
76424;BME280;65257;52.104;4.268;2023-06-04T03:02:46;56264.09;;;-142.31;100.00
76424;BME280;65257;52.104;4.268;2023-06-04T03:05:18;56264.09;;;-142.31;100.00
76424;BME280;65257;52.104;4.268;2023-06-04T03:07:45;56264.09;;;-142.31;100.00
76424;BME280;65257;52.104;4.268;2023-06-04T03:10:17;56264.09;;;-142.31;100.00
76424;BME280;65257;52.104;4.268;2023-06-04T03:12:43;56264.09;;;-142.31;100.00
76424;BME280;65257;52.104;4.268;2023-06-04T03:15:08;56264.09;;;-142.31;100.00
76424;BME280;65257;52.104;4.268;2023-06-04T03:17:50;56264.09;;;-142.31;100.00
76424;BME280;65257;52.104;4.268;2023-06-04T03:20:20;56264.09;;;-142.31;100.00
76424;BME280;65257;52.104;4.268;2023-06-04T03:22:55;56264.09;;;-142.31;100.00
76424;BME280;65257;52.104;4.268;2023-06-04T03:25:20;56264.09;;;-142.31;100.00
76424;BME280;65257;52.104;4.268;2023-06-04T03:27:46;56264.09;;;-142.31;100.00
76424;BME280;65257;52.104;4.268;2023-06-04T03:30:11;56264.09;;;-142.31;100.00
76424;BME280;65257;52.104;4.268;2023-06-04T03:32:46;56264.09;;;-142.31;100.00
76424;BME280;65257;52.104;4.268;2023-06-04T03:35:12;56264.09;;;-142.31;100.00
76424;BME280;65257;52.104;4.268;2023-06-04T03:37:37;56264.09;;;-142.31;100.00
76424;BME280;65257;52.104;4.268;2023-06-04T03:40:06;56264.09;;;-142.31;100.00
76424;BME280;65257;52.104;4.268;2023-06-04T03:42:35;56264.09;;;-142.31;100.00
76424;BME280;65257;52.104;4.268;2023-06-04T03:45:01;56264.09;;;-142.31;100.00
76424;BME280;65257;52.104;4.268;2023-06-04T03:47:29;56264.09;;;-142.31;100.00
76424;BME280;65257;52.104;4.268;2023-06-04T03:49:58;56264.09;;;-142.31;100.00
76424;BME280;65257;52.104;4.268;2023-06-04T03:52:23;56264.09;;;-142.31;100.00
76424;BME280;65257;52.104;4.268;2023-06-04T03:54:51;56264.09;;;-142.31;100.00
76424;BME280;65257;52.104;4.268;2023-06-04T03:57:17;56264.09;;;-142.31;100.00
76424;BME280;65257;52.104;4.268;2023-06-04T03:59:42;56264.09;;;-142.31;100.00
76424;BME280;65257;52.104;4.268;2023-06-04T04:02:11;56264.09;;;-142.31;100.00
76424;BME280;65257;52.104;4.268;2023-06-04T04:04:37;56264.09;;;-142.31;100.00
76424;BME280;65257;52.104;4.268;2023-06-04T04:07:02;56264.09;;;-142.31;100.00
76424;BME280;65257;52.104;4.268;2023-06-04T04:09:34;56264.09;;;-142.31;100.00
76424;BME280;65257;52.104;4.268;2023-06-04T04:11:59;56264.09;;;-142.31;100.00
76424;BME280;65257;52.104;4.268;2023-06-04T04:14:28;56264.09;;;-142.31;100.00
76424;BME280;65257;52.104;4.268;2023-06-04T04:16:56;56264.09;;;-142.31;100.00
76424;BME280;65257;52.104;4.268;2023-06-04T04:19:22;56264.09;;;-142.31;100.00
76424;BME280;65257;52.104;4.268;2023-06-04T04:21:48;56264.09;;;-142.31;100.00
76424;BME280;65257;52.104;4.268;2023-06-04T04:24:26;56264.09;;;-142.31;100.00
76424;BME280;65257;52.104;4.268;2023-06-04T04:26:53;56264.09;;;-142.31;100.00
76424;BME280;65257;52.104;4.268;2023-06-04T04:29:25;56264.09;;;-142.31;100.00
76424;BME280;65257;52.104;4.268;2023-06-04T04:31:53;56264.09;;;-142.31;100.00
76424;BME280;65257;52.104;4.268;2023-06-04T04:34:22;56264.09;;;-142.31;100.00
76424;BME280;65257;52.104;4.268;2023-06-04T04:36:55;56264.09;;;-142.31;100.00
76424;BME280;65257;52.104;4.268;2023-06-04T04:39:25;56264.09;;;-142.31;100.00
76424;BME280;65257;52.104;4.268;2023-06-04T04:42:00;56264.09;;;-142.31;100.00
76424;BME280;65257;52.104;4.268;2023-06-04T04:44:25;56264.09;;;-142.31;100.00
76424;BME280;65257;52.104;4.268;2023-06-04T04:46:51;56264.09;;;-142.31;100.00
76424;BME280;65257;52.104;4.268;2023-06-04T04:49:16;56264.09;;;-142.31;100.00
76424;BME280;65257;52.104;4.268;2023-06-04T04:51:43;56264.09;;;-142.31;100.00
76424;BME280;65257;52.104;4.268;2023-06-04T04:54:21;56264.09;;;-142.31;100.00
76424;BME280;65257;52.104;4.268;2023-06-04T04:56:49;56264.09;;;-142.31;100.00
76424;BME280;65257;52.104;4.268;2023-06-04T04:59:15;56264.09;;;-142.31;100.00
76424;BME280;65257;52.104;4.268;2023-06-04T05:01:44;56264.09;;;-142.31;100.00
76424;BME280;65257;52.104;4.268;2023-06-04T05:04:10;56264.09;;;-142.31;100.00
76424;BME280;65257;52.104;4.268;2023-06-04T05:06:37;56264.09;;;-142.31;100.00
76424;BME280;65257;52.104;4.268;2023-06-04T05:09:02;56264.09;;;-142.31;100.00
76424;BME280;65257;52.104;4.268;2023-06-04T05:11:32;56264.09;;;-142.31;100.00
76424;BME280;65257;52.104;4.268;2023-06-04T05:13:57;56264.09;;;-142.31;100.00
76424;BME280;65257;52.104;4.268;2023-06-04T05:16:23;56264.09;;;-142.31;100.00
76424;BME280;65257;52.104;4.268;2023-06-04T05:18:48;56264.09;;;-142.31;100.00
76424;BME280;65257;52.104;4.268;2023-06-04T05:21:19;56264.09;;;-142.31;100.00
76424;BME280;65257;52.104;4.268;2023-06-04T05:23:45;56264.09;;;-142.31;100.00
76424;BME280;65257;52.104;4.268;2023-06-04T05:26:13;56264.09;;;-142.31;100.00
76424;BME280;65257;52.104;4.268;2023-06-04T05:28:40;56264.09;;;-142.31;100.00
76424;BME280;65257;52.104;4.268;2023-06-04T05:31:09;56264.09;;;-142.31;100.00
76424;BME280;65257;52.104;4.268;2023-06-04T05:33:35;56264.09;;;-142.31;100.00
76424;BME280;65257;52.104;4.268;2023-06-04T05:36:06;56264.09;;;-142.31;100.00
76424;BME280;65257;52.104;4.268;2023-06-04T05:38:32;56264.09;;;-142.31;100.00
76424;BME280;65257;52.104;4.268;2023-06-04T05:41:01;56264.09;;;-142.31;100.00
76424;BME280;65257;52.104;4.268;2023-06-04T05:43:27;56264.09;;;-142.31;100.00
76424;BME280;65257;52.104;4.268;2023-06-04T05:46:02;56264.09;;;-142.31;100.00
76424;BME280;65257;52.104;4.268;2023-06-04T05:51:22;56264.09;;;-142.31;100.00
76424;BME280;65257;52.104;4.268;2023-06-04T05:53:48;56264.09;;;-142.31;100.00
76424;BME280;65257;52.104;4.268;2023-06-04T05:56:17;56264.09;;;-142.31;100.00
76424;BME280;65257;52.104;4.268;2023-06-04T05:58:51;56264.09;;;-142.31;100.00
76424;BME280;65257;52.104;4.268;2023-06-04T06:01:17;56264.09;;;-142.31;100.00
76424;BME280;65257;52.104;4.268;2023-06-04T06:03:42;56264.09;;;-142.31;100.00
76424;BME280;65257;52.104;4.268;2023-06-04T06:06:08;56264.09;;;-142.31;100.00
76424;BME280;65257;52.104;4.268;2023-06-04T06:08:37;56264.09;;;-142.31;100.00
76424;BME280;65257;52.104;4.268;2023-06-04T06:11:02;56264.09;;;-142.31;100.00
76424;BME280;65257;52.104;4.268;2023-06-04T06:13:30;56264.09;;;-142.31;100.00
76424;BME280;65257;52.104;4.268;2023-06-04T06:15:55;56264.09;;;-142.31;100.00
76424;BME280;65257;52.104;4.268;2023-06-04T06:18:21;56264.09;;;-142.31;100.00
76424;BME280;65257;52.104;4.268;2023-06-04T06:20:46;56264.09;;;-142.31;100.00
76424;BME280;65257;52.104;4.268;2023-06-04T06:23:12;56264.09;;;-142.31;100.00
76424;BME280;65257;52.104;4.268;2023-06-04T06:25:37;56264.09;;;-142.31;100.00
76424;BME280;65257;52.104;4.268;2023-06-04T06:28:07;56264.09;;;-142.31;100.00
76424;BME280;65257;52.104;4.268;2023-06-04T06:30:41;56264.09;;;-142.31;100.00
76424;BME280;65257;52.104;4.268;2023-06-04T06:33:07;56264.09;;;-142.31;100.00
76424;BME280;65257;52.104;4.268;2023-06-04T06:35:33;56264.09;;;-142.31;100.00
76424;BME280;65257;52.104;4.268;2023-06-04T06:37:58;56264.09;;;-142.31;100.00
76424;BME280;65257;52.104;4.268;2023-06-04T06:40:27;56264.09;;;-142.31;100.00
76424;BME280;65257;52.104;4.268;2023-06-04T06:42:55;56264.09;;;-142.31;100.00
76424;BME280;65257;52.104;4.268;2023-06-04T06:45:24;56264.09;;;-142.31;100.00
76424;BME280;65257;52.104;4.268;2023-06-04T06:47:52;56264.09;;;-142.31;100.00
76424;BME280;65257;52.104;4.268;2023-06-04T06:50:21;56264.09;;;-142.31;100.00
76424;BME280;65257;52.104;4.268;2023-06-04T06:52:52;56264.09;;;-142.31;100.00
76424;BME280;65257;52.104;4.268;2023-06-04T06:55:17;56264.09;;;-142.31;100.00
76424;BME280;65257;52.104;4.268;2023-06-04T06:57:44;56264.09;;;-142.31;100.00
76424;BME280;65257;52.104;4.268;2023-06-04T07:00:14;56264.09;;;-142.31;100.00
76424;BME280;65257;52.104;4.268;2023-06-04T07:02:44;56264.09;;;-142.31;100.00
76424;BME280;65257;52.104;4.268;2023-06-04T07:05:12;56264.09;;;-142.31;100.00
76424;BME280;65257;52.104;4.268;2023-06-04T07:07:40;56264.09;;;-142.31;100.00
76424;BME280;65257;52.104;4.268;2023-06-04T07:10:06;56264.09;;;-142.31;100.00
76424;BME280;65257;52.104;4.268;2023-06-04T07:12:34;56264.09;;;-142.31;100.00
76424;BME280;65257;52.104;4.268;2023-06-04T07:15:03;56264.09;;;-142.31;100.00
76424;BME280;65257;52.104;4.268;2023-06-04T07:17:31;56264.09;;;-142.31;100.00
76424;BME280;65257;52.104;4.268;2023-06-04T07:20:00;56264.09;;;-142.31;100.00
76424;BME280;65257;52.104;4.268;2023-06-04T07:22:29;56264.09;;;-142.31;100.00
76424;BME280;65257;52.104;4.268;2023-06-04T07:24:55;56264.09;;;-142.31;100.00
76424;BME280;65257;52.104;4.268;2023-06-04T07:27:23;56264.09;;;-142.31;100.00
76424;BME280;65257;52.104;4.268;2023-06-04T07:29:48;56264.09;;;-142.31;100.00
76424;BME280;65257;52.104;4.268;2023-06-04T07:32:20;56264.09;;;-142.31;100.00
76424;BME280;65257;52.104;4.268;2023-06-04T07:34:45;56264.09;;;-142.31;100.00
76424;BME280;65257;52.104;4.268;2023-06-04T07:37:14;56264.09;;;-142.31;100.00
76424;BME280;65257;52.104;4.268;2023-06-04T07:39:40;56264.09;;;-142.31;100.00
76424;BME280;65257;52.104;4.268;2023-06-04T07:42:08;56264.09;;;-142.31;100.00
76424;BME280;65257;52.104;4.268;2023-06-04T07:44:36;56264.09;;;-142.31;100.00
76424;BME280;65257;52.104;4.268;2023-06-04T07:47:03;56264.09;;;-142.31;100.00
76424;BME280;65257;52.104;4.268;2023-06-04T07:49:28;56264.09;;;-142.31;100.00
76424;BME280;65257;52.104;4.268;2023-06-04T07:51:54;56264.09;;;-142.31;100.00
76424;BME280;65257;52.104;4.268;2023-06-04T07:54:20;56264.09;;;-142.31;100.00
76424;BME280;65257;52.104;4.268;2023-06-04T07:56:49;56264.09;;;-142.31;100.00
76424;BME280;65257;52.104;4.268;2023-06-04T07:59:24;56264.09;;;-142.31;100.00
76424;BME280;65257;52.104;4.268;2023-06-04T08:01:50;56264.09;;;-142.31;100.00
76424;BME280;65257;52.104;4.268;2023-06-04T08:04:17;56264.09;;;-142.31;100.00
76424;BME280;65257;52.104;4.268;2023-06-04T08:06:45;56264.09;;;-142.31;100.00
76424;BME280;65257;52.104;4.268;2023-06-04T08:09:11;56264.09;;;-142.31;100.00
76424;BME280;65257;52.104;4.268;2023-06-04T08:11:39;56264.09;;;-142.31;100.00
76424;BME280;65257;52.104;4.268;2023-06-04T08:14:04;56264.09;;;-142.31;100.00
76424;BME280;65257;52.104;4.268;2023-06-04T08:16:31;56264.09;;;-142.31;100.00
76424;BME280;65257;52.104;4.268;2023-06-04T08:18:57;56264.09;;;-142.31;100.00
76424;BME280;65257;52.104;4.268;2023-06-04T08:21:29;56264.09;;;-142.31;100.00
76424;BME280;65257;52.104;4.268;2023-06-04T08:23:54;56264.09;;;-142.31;100.00
76424;BME280;65257;52.104;4.268;2023-06-04T08:26:23;56264.09;;;-142.31;100.00
76424;BME280;65257;52.104;4.268;2023-06-04T08:28:52;56264.09;;;-142.31;100.00
76424;BME280;65257;52.104;4.268;2023-06-04T08:31:23;56264.09;;;-142.31;100.00
76424;BME280;65257;52.104;4.268;2023-06-04T08:33:49;56264.09;;;-142.31;100.00
76424;BME280;65257;52.104;4.268;2023-06-04T08:36:15;56264.09;;;-142.31;100.00
76424;BME280;65257;52.104;4.268;2023-06-04T08:38:41;56264.09;;;-142.31;100.00
76424;BME280;65257;52.104;4.268;2023-06-04T08:41:15;56264.09;;;-142.31;100.00
76424;BME280;65257;52.104;4.268;2023-06-04T08:43:41;56264.09;;;-142.31;100.00
76424;BME280;65257;52.104;4.268;2023-06-04T08:46:15;56264.09;;;-142.31;100.00
76424;BME280;65257;52.104;4.268;2023-06-04T08:48:44;56264.09;;;-142.31;100.00
76424;BME280;65257;52.104;4.268;2023-06-04T08:51:13;56264.09;;;-142.31;100.00
76424;BME280;65257;52.104;4.268;2023-06-04T08:53:39;56264.09;;;-142.31;100.00
76424;BME280;65257;52.104;4.268;2023-06-04T08:56:08;56264.09;;;-142.31;100.00
76424;BME280;65257;52.104;4.268;2023-06-04T08:58:37;56264.09;;;-142.31;100.00
76424;BME280;65257;52.104;4.268;2023-06-04T09:01:05;56264.09;;;-142.31;100.00
76424;BME280;65257;52.104;4.268;2023-06-04T09:03:37;56264.09;;;-142.31;100.00
76424;BME280;65257;52.104;4.268;2023-06-04T09:06:04;56264.09;;;-142.31;100.00
76424;BME280;65257;52.104;4.268;2023-06-04T09:08:31;56264.09;;;-142.31;100.00
76424;BME280;65257;52.104;4.268;2023-06-04T09:11:08;56264.09;;;-142.31;100.00
76424;BME280;65257;52.104;4.268;2023-06-04T09:13:36;56264.09;;;-142.31;100.00
76424;BME280;65257;52.104;4.268;2023-06-04T09:16:05;56264.09;;;-142.31;100.00
76424;BME280;65257;52.104;4.268;2023-06-04T09:18:32;56264.09;;;-142.31;100.00
76424;BME280;65257;52.104;4.268;2023-06-04T09:21:05;56264.09;;;-142.31;100.00
76424;BME280;65257;52.104;4.268;2023-06-04T09:23:44;56264.09;;;-142.31;100.00
76424;BME280;65257;52.104;4.268;2023-06-04T09:26:10;56264.09;;;-142.31;100.00
76424;BME280;65257;52.104;4.268;2023-06-04T09:28:45;56264.09;;;-142.31;100.00
76424;BME280;65257;52.104;4.268;2023-06-04T09:31:17;56264.09;;;-142.31;100.00
76424;BME280;65257;52.104;4.268;2023-06-04T09:33:50;56264.09;;;-142.31;100.00
76424;BME280;65257;52.104;4.268;2023-06-04T09:36:33;56264.09;;;-142.31;100.00
76424;BME280;65257;52.104;4.268;2023-06-04T09:39:18;56264.09;;;-142.31;100.00
76424;BME280;65257;52.104;4.268;2023-06-04T09:42:03;56264.09;;;-142.31;100.00
76424;BME280;65257;52.104;4.268;2023-06-04T09:44:49;56264.09;;;-142.31;100.00
76424;BME280;65257;52.104;4.268;2023-06-04T09:47:15;56264.09;;;-142.31;100.00
76424;BME280;65257;52.104;4.268;2023-06-04T09:49:48;56264.09;;;-142.31;100.00
76424;BME280;65257;52.104;4.268;2023-06-04T09:52:32;56264.09;;;-142.31;100.00
76424;BME280;65257;52.104;4.268;2023-06-04T09:55:18;56264.09;;;-142.31;100.00
76424;BME280;65257;52.104;4.268;2023-06-04T09:57:48;56264.09;;;-142.31;100.00
76424;BME280;65257;52.104;4.268;2023-06-04T10:00:24;56264.09;;;-142.31;100.00
76424;BME280;65257;52.104;4.268;2023-06-04T10:02:57;56264.09;;;-142.31;100.00
76424;BME280;65257;52.104;4.268;2023-06-04T10:05:26;56264.09;;;-142.31;100.00
76424;BME280;65257;52.104;4.268;2023-06-04T10:07:53;56264.09;;;-142.31;100.00
76424;BME280;65257;52.104;4.268;2023-06-04T10:10:25;56264.09;;;-142.31;100.00
76424;BME280;65257;52.104;4.268;2023-06-04T10:13:00;56264.09;;;-142.31;100.00
76424;BME280;65257;52.104;4.268;2023-06-04T10:15:48;56264.09;;;-142.31;100.00
76424;BME280;65257;52.104;4.268;2023-06-04T10:18:16;56264.09;;;-142.31;100.00
76424;BME280;65257;52.104;4.268;2023-06-04T10:20:46;56264.09;;;-142.31;100.00
76424;BME280;65257;52.104;4.268;2023-06-04T10:23:21;56264.09;;;-142.31;100.00
76424;BME280;65257;52.104;4.268;2023-06-04T10:25:51;56264.09;;;-142.31;100.00
76424;BME280;65257;52.104;4.268;2023-06-04T10:28:23;56264.09;;;-142.31;100.00
76424;BME280;65257;52.104;4.268;2023-06-04T10:30:50;56264.09;;;-142.31;100.00
76424;BME280;65257;52.104;4.268;2023-06-04T10:33:21;56264.09;;;-142.31;100.00
76424;BME280;65257;52.104;4.268;2023-06-04T10:36:22;56264.09;;;-142.31;100.00
76424;BME280;65257;52.104;4.268;2023-06-04T10:39:00;56264.09;;;-142.31;100.00
76424;BME280;65257;52.104;4.268;2023-06-04T10:41:26;56264.09;;;-142.31;100.00
76424;BME280;65257;52.104;4.268;2023-06-04T10:44:04;56264.09;;;-142.31;100.00
76424;BME280;65257;52.104;4.268;2023-06-04T10:46:39;56264.09;;;-142.31;100.00
76424;BME280;65257;52.104;4.268;2023-06-04T10:49:10;56264.09;;;-142.31;100.00
76424;BME280;65257;52.104;4.268;2023-06-04T10:51:37;56264.09;;;-142.31;100.00
76424;BME280;65257;52.104;4.268;2023-06-04T10:54:04;56264.09;;;-142.31;100.00
76424;BME280;65257;52.104;4.268;2023-06-04T10:56:32;56264.09;;;-142.31;100.00
76424;BME280;65257;52.104;4.268;2023-06-04T10:58:59;56264.09;;;-142.31;100.00
76424;BME280;65257;52.104;4.268;2023-06-04T11:01:31;56264.09;;;-142.31;100.00
76424;BME280;65257;52.104;4.268;2023-06-04T11:04:25;102352.47;;;20.73;100.00
76424;BME280;65257;52.104;4.268;2023-06-04T11:09:27;102356.38;;;20.49;100.00
76424;BME280;65257;52.104;4.268;2023-06-04T11:11:59;102360.50;;;20.85;100.00
76424;BME280;65257;52.104;4.268;2023-06-04T11:14:28;102355.03;;;20.26;100.00
76424;BME280;65257;52.104;4.268;2023-06-04T11:16:53;102352.97;;;21.00;100.00
76424;BME280;65257;52.104;4.268;2023-06-04T11:19:44;102359.31;;;20.68;100.00
76424;BME280;65257;52.104;4.268;2023-06-04T11:22:23;102343.06;;;21.30;100.00
76424;BME280;65257;52.104;4.268;2023-06-04T11:25:03;102353.34;;;21.23;100.00
76424;BME280;65257;52.104;4.268;2023-06-04T11:27:33;102347.88;;;20.58;100.00
76424;BME280;65257;52.104;4.268;2023-06-04T11:30:06;102340.91;;;21.05;100.00
76424;BME280;65257;52.104;4.268;2023-06-04T11:32:32;102335.13;;;21.24;100.00
76424;BME280;65257;52.104;4.268;2023-06-04T11:35:05;102337.13;;;21.39;100.00
76424;BME280;65257;52.104;4.268;2023-06-04T11:37:32;102336.09;;;21.29;100.00
76424;BME280;65257;52.104;4.268;2023-06-04T11:40:01;102331.53;;;21.13;100.00
76424;BME280;65257;52.104;4.268;2023-06-04T11:42:29;102337.34;;;21.00;100.00
76424;BME280;65257;52.104;4.268;2023-06-04T11:44:58;102339.06;;;21.01;100.00
76424;BME280;65257;52.104;4.268;2023-06-04T11:47:25;102337.84;;;20.79;100.00
76424;BME280;65257;52.104;4.268;2023-06-04T11:49:55;102330.00;;;20.76;100.00
76424;BME280;65257;52.104;4.268;2023-06-04T11:52:22;102336.72;;;20.64;100.00
76424;BME280;65257;52.104;4.268;2023-06-04T11:54:48;102335.94;;;20.24;100.00
76424;BME280;65257;52.104;4.268;2023-06-04T11:57:14;102330.56;;;20.60;100.00
76424;BME280;65257;52.104;4.268;2023-06-04T11:59:40;102325.59;;;20.74;100.00
76424;BME280;65257;52.104;4.268;2023-06-04T12:02:10;102331.22;;;20.48;100.00
76424;BME280;65257;52.104;4.268;2023-06-04T12:04:41;102329.88;;;20.24;100.00
76424;BME280;65257;52.104;4.268;2023-06-04T12:07:10;102328.78;;;20.14;100.00
76424;BME280;65257;52.104;4.268;2023-06-04T12:09:37;102326.22;;;20.16;100.00
76424;BME280;65257;52.104;4.268;2023-06-04T12:12:10;102329.38;;;20.01;100.00
76424;BME280;65257;52.104;4.268;2023-06-04T12:14:43;102337.75;;;19.86;100.00
76424;BME280;65257;52.104;4.268;2023-06-04T12:17:10;102329.00;;;19.83;100.00
76424;BME280;65257;52.104;4.268;2023-06-04T12:19:46;102326.88;;;19.64;100.00
76424;BME280;65257;52.104;4.268;2023-06-04T12:22:13;102331.50;;;19.40;100.00
76424;BME280;65257;52.104;4.268;2023-06-04T12:24:52;102329.31;;;19.58;100.00
76424;BME280;65257;52.104;4.268;2023-06-04T12:27:23;102335.13;;;19.46;100.00
76424;BME280;65257;52.104;4.268;2023-06-04T12:29:58;102336.63;;;19.02;100.00
76424;BME280;65257;52.104;4.268;2023-06-04T12:32:24;102343.72;;;19.09;100.00
76424;BME280;65257;52.104;4.268;2023-06-04T12:34:52;102336.63;;;19.02;100.00
76424;BME280;65257;52.104;4.268;2023-06-04T12:37:24;102336.16;;;18.84;100.00
76424;BME280;65257;52.104;4.268;2023-06-04T12:39:53;102330.91;;;18.81;100.00
76424;BME280;65257;52.104;4.268;2023-06-04T12:42:22;102335.59;;;18.63;100.00
76424;BME280;65257;52.104;4.268;2023-06-04T12:44:49;102334.78;;;18.34;100.00
76424;BME280;65257;52.104;4.268;2023-06-04T12:47:15;102331.97;;;18.25;100.00
76424;BME280;65257;52.104;4.268;2023-06-04T12:49:43;102337.25;;;18.30;100.00